Time;durP1;ratioP1;P1;durP2;ratioP2;P2;SDS_P1;SDS_P2;PMS_P1;PMS_P2;Temp;Humidity;BMP_temperature;BMP_pressure;BME280_temperature;BME280_humidity;BME280_pressure;Samples;Min_cycle;Max_cycle;Signal;HPM_P1;HPM_P2
2023/04/17 00:01:39;;;;;;;42.30;24.13;;;8.20;99.90;;;;;;5068910;28;20124;-78
2023/04/17 00:04:09;;;;;;;40.47;24.20;;;8.10;99.90;;;;;;5063020;28;20076;-77
2023/04/17 00:06:36;;;;;;;36.63;23.20;;;8.10;99.90;;;;;;5066176;28;20040;-77
2023/04/17 00:09:02;;;;;;;39.72;24.55;;;8.10;99.90;;;;;;5070054;28;20040;-78
2023/04/17 00:11:28;;;;;;;39.20;23.23;;;8.10;99.90;;;;;;5068445;28;20086;-78
2023/04/17 00:13:54;;;;;;;40.83;23.00;;;8.10;99.90;;;;;;5067508;28;20094;-78
2023/04/17 00:16:20;;;;;;;39.20;23.48;;;8.10;99.90;;;;;;5069087;28;20123;-78
2023/04/17 00:18:45;;;;;;;40.60;22.73;;;8.10;99.90;;;;;;5069989;28;20036;-78
2023/04/17 00:21:11;;;;;;;37.10;23.42;;;8.10;99.90;;;;;;5068700;28;20098;-78
2023/04/17 00:23:37;;;;;;;39.25;23.27;;;8.10;99.90;;;;;;5072462;28;20441;-78
2023/04/17 00:26:02;;;;;;;39.50;23.05;;;8.10;99.90;;;;;;5069568;28;20076;-77
2023/04/17 00:28:28;;;;;;;37.63;22.20;;;8.10;99.90;;;;;;5051657;28;20045;-78
2023/04/17 00:30:54;;;;;;;40.75;24.38;;;8.10;99.90;;;;;;5046744;28;20181;-76
2023/04/17 00:33:19;;;;;;;37.20;23.08;;;8.10;99.90;;;;;;5052002;28;20040;-77
2023/04/17 00:35:45;;;;;;;39.92;23.35;;;8.10;99.90;;;;;;5065714;28;20116;-78
2023/04/17 00:38:11;;;;;;;41.55;24.00;;;8.10;99.90;;;;;;5068211;28;20059;-76
2023/04/17 00:40:37;;;;;;;39.70;23.77;;;8.10;99.90;;;;;;5068494;28;20140;-77
2023/04/17 00:43:03;;;;;;;39.67;23.75;;;8.10;99.90;;;;;;5050022;28;20045;-76
2023/04/17 00:45:30;;;;;;;42.20;24.88;;;8.10;99.90;;;;;;5053482;28;20048;-78
2023/04/17 00:47:58;;;;;;;41.80;24.33;;;8.10;99.90;;;;;;5068226;28;20137;-78
2023/04/17 00:50:26;;;;;;;45.92;26.35;;;8.10;99.90;;;;;;5046364;28;20044;-78
2023/04/17 00:52:52;;;;;;;44.10;24.52;;;8.10;99.90;;;;;;5068302;28;20044;-78
2023/04/17 00:55:18;;;;;;;45.90;25.45;;;8.10;99.90;;;;;;5051220;28;20040;-78
2023/04/17 00:57:44;;;;;;;45.13;25.95;;;8.10;99.90;;;;;;5069882;28;20446;-79
2023/04/17 01:00:11;;;;;;;44.85;25.95;;;8.10;99.90;;;;;;5068405;28;20040;-77
2023/04/17 01:02:37;;;;;;;49.20;26.23;;;8.10;99.90;;;;;;5067510;28;20080;-78
2023/04/17 01:05:03;;;;;;;46.78;25.40;;;8.10;99.90;;;;;;5068161;28;20369;-77
2023/04/17 01:07:29;;;;;;;50.15;26.20;;;8.10;99.90;;;;;;5069955;28;20133;-77
2023/04/17 01:09:55;;;;;;;51.90;27.15;;;8.10;99.90;;;;;;5069184;28;20390;-78
2023/04/17 01:12:22;;;;;;;50.00;25.80;;;8.10;99.90;;;;;;5062073;28;20032;-78
2023/04/17 01:14:53;;;;;;;51.72;27.25;;;8.10;99.90;;;;;;5058439;28;20047;-78
2023/04/17 01:17:19;;;;;;;50.15;25.88;;;8.10;99.90;;;;;;5032928;28;20040;-78
2023/04/17 01:19:45;;;;;;;46.08;25.55;;;8.10;99.90;;;;;;5033346;28;20126;-78
2023/04/17 01:22:11;;;;;;;54.13;27.15;;;8.10;99.90;;;;;;5062983;28;20041;-78
2023/04/17 01:24:37;;;;;;;51.47;25.92;;;8.10;99.90;;;;;;5052141;28;20500;-79
2023/04/17 01:27:03;;;;;;;52.08;27.23;;;8.10;99.90;;;;;;5052015;28;20075;-78
2023/04/17 01:29:29;;;;;;;51.38;26.63;;;8.00;99.90;;;;;;5069903;28;20037;-77
2023/04/17 01:31:55;;;;;;;59.40;27.85;;;8.00;99.90;;;;;;5066240;28;20342;-77
2023/04/17 01:34:21;;;;;;;54.60;26.42;;;8.00;99.90;;;;;;5064980;28;20048;-78
2023/04/17 01:36:47;;;;;;;55.35;27.95;;;8.00;99.90;;;;;;5065649;28;20123;-79
2023/04/17 01:39:13;;;;;;;54.58;27.15;;;8.00;99.90;;;;;;5068594;28;20055;-78
2023/04/17 01:41:38;;;;;;;47.75;25.65;;;8.00;99.90;;;;;;5065899;28;20410;-78
2023/04/17 01:44:04;;;;;;;52.72;26.75;;;8.00;99.90;;;;;;5061494;28;20044;-78
2023/04/17 01:46:30;;;;;;;57.25;27.00;;;8.00;99.90;;;;;;5051693;28;20044;-78
2023/04/17 01:48:56;;;;;;;60.13;27.60;;;8.00;99.90;;;;;;5069218;28;20044;-77
2023/04/17 01:51:21;;;;;;;55.20;26.95;;;8.00;99.90;;;;;;5051662;28;20059;-77
2023/04/17 01:53:47;;;;;;;53.33;26.70;;;8.00;99.90;;;;;;5066303;28;20048;-78
2023/04/17 01:56:13;;;;;;;73.15;27.35;;;8.00;99.90;;;;;;5051385;28;20072;-77
2023/04/17 01:58:39;;;;;;;53.65;25.05;;;8.00;99.90;;;;;;5067955;28;20492;-78
2023/04/17 02:01:05;;;;;;;50.72;24.85;;;8.00;99.90;;;;;;5066458;28;20040;-78
2023/04/17 02:03:31;;;;;;;58.10;26.30;;;7.90;99.90;;;;;;5061271;28;20047;-78
2023/04/17 02:05:57;;;;;;;50.30;24.77;;;7.90;99.90;;;;;;5060052;28;20159;-78
2023/04/17 02:08:23;;;;;;;68.85;25.33;;;7.90;99.90;;;;;;5069398;28;20119;-78
2023/04/17 02:10:49;;;;;;;52.45;25.25;;;7.90;99.90;;;;;;5052095;28;20569;-78
2023/04/17 02:13:15;;;;;;;88.63;29.10;;;7.90;99.90;;;;;;5052908;28;20127;-78
2023/04/17 02:15:41;;;;;;;54.80;24.45;;;7.80;99.90;;;;;;5067169;28;20044;-77
2023/04/17 02:18:07;;;;;;;63.10;26.33;;;7.80;99.90;;;;;;5067631;28;20040;-77
2023/04/17 02:20:35;;;;;;;74.22;27.60;;;7.80;99.90;;;;;;5060251;28;20033;-79
2023/04/17 02:23:02;;;;;;;55.20;25.00;;;7.80;99.90;;;;;;5048727;28;20103;-78
2023/04/17 02:25:28;;;;;;;75.25;27.25;;;7.80;99.90;;;;;;5061997;28;20040;-78
2023/04/17 02:27:55;;;;;;;54.13;24.73;;;7.80;99.90;;;;;;5047264;28;20059;-78
2023/04/17 02:30:21;;;;;;;50.75;23.35;;;7.80;99.90;;;;;;5066827;28;20162;-78
2023/04/17 02:32:50;;;;;;;51.15;24.95;;;7.80;99.90;;;;;;5056935;28;20060;-78
2023/04/17 02:35:16;;;;;;;50.15;24.60;;;7.80;99.90;;;;;;5062760;28;20425;-78
2023/04/17 02:37:42;;;;;;;67.20;25.45;;;7.80;99.90;;;;;;5067967;28;20040;-78
2023/04/17 02:40:09;;;;;;;107.15;27.63;;;7.80;99.90;;;;;;5068955;28;20049;-78
2023/04/17 02:42:35;;;;;;;50.72;23.63;;;7.80;99.90;;;;;;5058887;28;20044;-78
2023/04/17 02:45:01;;;;;;;55.50;24.27;;;7.70;99.90;;;;;;5050374;28;20132;-76
2023/04/17 02:47:27;;;;;;;116.68;28.20;;;7.70;99.90;;;;;;5067446;28;20051;-77
2023/04/17 02:49:54;;;;;;;95.63;26.63;;;7.70;99.90;;;;;;5065782;28;20044;-77
2023/04/17 02:52:20;;;;;;;88.90;27.63;;;7.70;99.90;;;;;;5036124;28;20045;-77
2023/04/17 02:54:45;;;;;;;47.72;23.48;;;8.80;99.90;;;;;;5051412;28;20049;-77
2023/04/17 02:57:11;;;;;;;55.50;22.13;;;7.60;99.90;;;;;;5062456;28;20044;-77
2023/04/17 02:59:37;;;;;;;40.40;21.33;;;7.60;99.90;;;;;;5065617;28;20037;-77
2023/04/17 03:02:03;;;;;;;44.50;22.33;;;7.60;99.90;;;;;;5044862;28;20037;-78
2023/04/17 03:04:29;;;;;;;45.85;23.13;;;7.60;99.90;;;;;;5046723;28;20099;-77
2023/04/17 03:06:55;;;;;;;48.13;24.77;;;7.60;99.90;;;;;;5050579;28;20048;-78
2023/04/17 03:09:22;;;;;;;44.50;22.83;;;8.90;99.90;;;;;;5055417;28;20036;-78
2023/04/17 03:11:48;;;;;;;53.97;24.77;;;7.70;99.90;;;;;;5065981;28;20051;-78
2023/04/17 03:14:14;;;;;;;50.65;23.33;;;7.70;99.90;;;;;;5055410;28;20049;-77
2023/04/17 03:16:40;;;;;;;41.88;22.35;;;7.70;99.90;;;;;;5052922;28;20088;-76
2023/04/17 03:19:06;;;;;;;41.53;20.65;;;7.70;99.90;;;;;;5066653;28;20116;-77
2023/04/17 03:21:31;;;;;;;41.83;21.83;;;7.70;99.90;;;;;;5065607;28;20048;-77
2023/04/17 03:23:57;;;;;;;62.72;24.08;;;7.70;99.90;;;;;;5067971;28;20094;-77
2023/04/17 03:26:23;;;;;;;40.85;21.27;;;7.70;99.90;;;;;;5067711;28;20044;-77
2023/04/17 03:28:48;;;;;;;42.70;20.80;;;7.60;99.90;;;;;;5067933;28;20434;-77
2023/04/17 03:31:14;;;;;;;44.85;21.95;;;7.60;99.90;;;;;;5060364;28;20049;-77
2023/04/17 03:33:40;;;;;;;51.97;21.50;;;7.60;99.90;;;;;;5061900;28;20044;-77
2023/04/17 03:36:06;;;;;;;56.25;21.27;;;7.60;99.90;;;;;;5052497;28;20077;-77
2023/04/17 03:38:33;;;;;;;40.38;21.38;;;7.60;99.90;;;;;;5065061;28;20041;-77
2023/04/17 03:40:59;;;;;;;57.30;21.45;;;7.60;99.90;;;;;;5058083;28;20053;-77
2023/04/17 03:43:25;;;;;;;69.63;23.50;;;7.50;99.90;;;;;;5066575;28;20051;-77
2023/04/17 03:45:51;;;;;;;89.43;23.13;;;7.60;99.90;;;;;;5067429;28;20155;-78
2023/04/17 03:48:16;;;;;;;81.70;22.52;;;7.50;99.90;;;;;;5051024;28;20048;-78
2023/04/17 03:50:42;;;;;;;66.20;22.95;;;7.50;99.90;;;;;;5048890;28;20043;-77
2023/04/17 03:53:08;;;;;;;84.65;22.75;;;7.50;99.90;;;;;;5042591;28;20044;-77
2023/04/17 03:55:34;;;;;;;122.68;24.63;;;7.50;99.90;;;;;;5069025;28;20048;-78
2023/04/17 03:58:00;;;;;;;111.30;22.25;;;7.40;99.90;;;;;;5067787;28;20044;-77
2023/04/17 04:00:26;;;;;;;80.18;21.67;;;7.40;99.90;;;;;;5064167;28;20419;-77
2023/04/17 04:02:52;;;;;;;105.28;22.25;;;7.80;99.90;;;;;;5050322;28;20053;-77
2023/04/17 04:05:17;;;;;;;75.90;20.50;;;7.40;99.90;;;;;;5058892;28;20120;-77
2023/04/17 04:07:43;;;;;;;80.20;21.15;;;7.40;99.90;;;;;;5043096;28;20186;-77
2023/04/17 04:10:09;;;;;;;68.78;20.67;;;7.40;99.90;;;;;;5058776;28;20121;-78
2023/04/17 04:12:35;;;;;;;67.32;20.58;;;7.40;99.90;;;;;;5070150;28;20439;-78
2023/04/17 04:15:01;;;;;;;41.08;20.05;;;7.40;99.90;;;;;;5061054;28;20070;-78
2023/04/17 04:17:26;;;;;;;94.72;23.48;;;7.40;99.90;;;;;;5056270;28;20401;-77
2023/04/17 04:19:52;;;;;;;93.03;25.08;;;7.50;99.90;;;;;;5071211;28;20067;-78
2023/04/17 04:22:20;;;;;;;114.72;28.25;;;7.50;99.90;;;;;;5057889;28;20045;-77
2023/04/17 04:24:46;;;;;;;124.07;28.70;;;7.50;99.90;;;;;;5059659;28;20037;-78
2023/04/17 04:27:12;;;;;;;57.72;24.63;;;7.50;99.90;;;;;;5059025;28;20044;-77
2023/04/17 04:29:38;;;;;;;92.43;27.45;;;7.50;99.90;;;;;;5068605;28;20048;-77
2023/04/17 04:32:04;;;;;;;99.43;27.83;;;7.50;99.90;;;;;;5068447;28;20040;-78
2023/04/17 04:34:29;;;;;;;62.17;25.27;;;7.50;99.90;;;;;;5068372;28;20494;-77
2023/04/17 04:36:56;;;;;;;100.38;26.45;;;7.50;99.90;;;;;;5067699;28;20032;-77
2023/04/17 04:39:22;;;;;;;70.43;24.52;;;7.60;99.90;;;;;;5067121;28;20059;-78
2023/04/17 04:41:49;;;;;;;74.20;25.65;;;7.50;99.90;;;;;;5046592;28;20045;-78
2023/04/17 04:44:18;;;;;;;94.55;28.20;;;7.50;99.90;;;;;;5069957;28;20055;-78
2023/04/17 04:46:44;;;;;;;95.72;25.45;;;7.60;99.90;;;;;;5058720;28;20451;-76
2023/04/17 04:49:10;;;;;;;76.25;24.27;;;7.60;99.90;;;;;;5062459;28;20048;-77
2023/04/17 04:51:36;;;;;;;45.60;23.48;;;7.60;99.90;;;;;;5075774;28;20059;-77
2023/04/17 04:54:02;;;;;;;61.60;23.20;;;7.50;99.90;;;;;;5065326;28;20436;-78
2023/04/17 04:56:28;;;;;;;46.17;20.70;;;7.60;99.90;;;;;;5061249;28;20105;-78
2023/04/17 04:59:01;;;;;;;50.60;22.30;;;8.20;99.90;;;;;;5070397;28;20040;-77
2023/04/17 05:01:28;;;;;;;47.03;22.80;;;8.20;99.90;;;;;;5047323;28;20044;-78
2023/04/17 05:03:54;;;;;;;45.60;22.95;;;7.60;99.90;;;;;;5058482;28;20048;-77
2023/04/17 05:06:20;;;;;;;45.95;22.73;;;7.60;99.90;;;;;;5045244;28;20447;-78
2023/04/17 05:08:45;;;;;;;38.95;21.67;;;7.60;99.90;;;;;;5062486;28;20044;-78
2023/04/17 05:11:11;;;;;;;48.20;22.77;;;7.60;99.90;;;;;;5064693;28;20093;-78
2023/04/17 05:13:37;;;;;;;44.13;22.75;;;7.60;99.90;;;;;;5056477;28;20069;-78
2023/04/17 05:16:03;;;;;;;40.75;22.92;;;7.70;99.90;;;;;;5049305;28;20059;-78
2023/04/17 05:18:29;;;;;;;40.63;21.90;;;7.70;99.90;;;;;;5066955;28;20048;-77
2023/04/17 05:20:54;;;;;;;41.05;23.23;;;7.70;99.90;;;;;;5049041;28;20055;-76
2023/04/17 05:23:21;;;;;;;41.55;23.55;;;7.80;99.90;;;;;;5071125;28;20055;-76
2023/04/17 05:25:48;;;;;;;40.47;22.52;;;7.80;99.90;;;;;;5070738;28;20094;-76
2023/04/17 05:28:13;;;;;;;39.30;22.73;;;7.80;99.90;;;;;;5063992;28;20064;-78
2023/04/17 05:30:39;;;;;;;35.58;21.40;;;7.80;99.90;;;;;;5069386;28;20672;-77
2023/04/17 05:33:05;;;;;;;36.42;20.63;;;7.90;99.90;;;;;;5050156;28;20113;-77
2023/04/17 05:35:31;;;;;;;38.10;20.95;;;7.90;99.90;;;;;;5063681;28;20163;-77
2023/04/17 05:37:57;;;;;;;40.78;22.77;;;8.00;99.90;;;;;;5054247;28;20514;-77
2023/04/17 05:40:23;;;;;;;35.85;21.67;;;8.00;99.90;;;;;;5064122;28;20067;-78
2023/04/17 05:42:48;;;;;;;38.47;22.15;;;8.00;99.90;;;;;;5034811;28;20045;-78
2023/04/17 05:45:16;;;;;;;35.17;21.00;;;8.00;99.90;;;;;;5052884;28;20050;-78
2023/04/17 05:47:42;;;;;;;37.08;21.00;;;8.10;99.90;;;;;;5067987;28;20509;-78
2023/04/17 05:50:08;;;;;;;39.63;22.00;;;8.10;99.90;;;;;;5052000;28;20049;-78
2023/04/17 05:52:35;;;;;;;34.97;20.40;;;8.10;99.90;;;;;;5056816;28;20056;-78
2023/04/17 05:55:01;;;;;;;35.95;20.00;;;8.20;99.90;;;;;;5057235;28;20040;-78
2023/04/17 05:57:26;;;;;;;34.30;20.05;;;8.20;99.90;;;;;;5074092;28;20379;-78
2023/04/17 05:59:52;;;;;;;37.35;20.60;;;8.20;99.90;;;;;;5044816;28;20453;-78
2023/04/17 06:02:18;;;;;;;34.88;20.95;;;8.30;99.90;;;;;;5048708;28;20041;-78
2023/04/17 06:04:45;;;;;;;34.00;19.65;;;8.30;99.90;;;;;;5048649;28;20044;-78
2023/04/17 06:07:11;;;;;;;33.13;19.88;;;8.40;99.90;;;;;;5068565;28;20087;-78
2023/04/17 06:09:37;;;;;;;33.42;20.95;;;8.40;99.90;;;;;;5051750;28;20171;-78
2023/04/17 06:12:04;;;;;;;33.40;20.75;;;8.40;99.90;;;;;;5068744;28;20044;-78
2023/04/17 06:14:29;;;;;;;35.08;19.75;;;8.50;99.90;;;;;;5068855;28;20140;-78
2023/04/17 06:16:56;;;;;;;34.55;20.55;;;8.50;99.90;;;;;;5052437;28;20124;-78
2023/04/17 06:19:22;;;;;;;28.65;18.60;;;8.60;99.90;;;;;;5052549;28;20162;-78
2023/04/17 06:21:48;;;;;;;33.00;20.58;;;8.60;99.90;;;;;;5067792;28;20402;-78
2023/04/17 06:24:14;;;;;;;30.02;18.67;;;8.60;99.90;;;;;;5064580;28;20048;-78
2023/04/17 06:26:40;;;;;;;31.63;18.95;;;8.70;99.90;;;;;;5049144;28;20514;-78
2023/04/17 06:29:06;;;;;;;34.53;19.83;;;8.70;99.90;;;;;;5048754;28;20054;-78
2023/04/17 06:31:31;;;;;;;32.60;20.67;;;8.80;99.90;;;;;;5056951;28;20039;-78
2023/04/17 06:33:57;;;;;;;29.67;18.80;;;8.70;99.90;;;;;;5063747;28;20052;-78
2023/04/17 06:36:23;;;;;;;28.23;19.70;;;8.80;99.90;;;;;;5067874;28;20125;-78
2023/04/17 06:38:48;;;;;;;30.50;18.95;;;8.90;99.90;;;;;;5068091;28;20051;-78
2023/04/17 06:41:15;;;;;;;30.40;19.85;;;8.90;99.90;;;;;;5066704;28;20052;-78
2023/04/17 06:43:40;;;;;;;33.05;20.95;;;8.90;99.90;;;;;;5034609;28;20123;-78
2023/04/17 06:46:06;;;;;;;29.02;19.75;;;9.00;99.90;;;;;;5048245;28;20133;-78
2023/04/17 06:48:32;;;;;;;31.58;20.25;;;9.00;99.90;;;;;;5044764;28;20490;-78
2023/04/17 06:50:57;;;;;;;30.92;19.42;;;9.10;99.90;;;;;;5067738;28;20122;-78
2023/04/17 06:53:23;;;;;;;30.60;20.60;;;9.10;99.90;;;;;;5054577;28;20092;-78
2023/04/17 06:55:49;;;;;;;28.73;19.65;;;9.20;99.90;;;;;;5047456;28;20041;-77
2023/04/17 06:58:14;;;;;;;27.45;19.73;;;9.20;99.90;;;;;;5048013;28;20049;-77
2023/04/17 07:00:40;;;;;;;28.10;19.80;;;9.20;99.90;;;;;;5049380;28;20745;-77
2023/04/17 07:03:06;;;;;;;28.02;18.67;;;9.20;99.90;;;;;;5065971;28;20044;-77
2023/04/17 07:05:32;;;;;;;26.80;19.10;;;9.20;99.90;;;;;;5067830;28;20070;-77
2023/04/17 07:07:58;;;;;;;28.40;18.52;;;9.20;99.90;;;;;;5067684;28;20048;-78
2023/04/17 07:10:23;;;;;;;25.50;18.08;;;9.30;99.90;;;;;;5067878;28;20131;-78
2023/04/17 07:12:49;;;;;;;27.33;18.50;;;9.40;99.90;;;;;;5066688;28;20391;-78
2023/04/17 07:15:15;;;;;;;25.90;18.92;;;9.50;99.90;;;;;;5067529;28;20033;-78
2023/04/17 07:17:41;;;;;;;27.48;19.10;;;9.50;99.90;;;;;;5067524;28;20055;-78
2023/04/17 07:20:07;;;;;;;27.45;19.05;;;9.50;99.90;;;;;;5034449;28;20083;-78
2023/04/17 07:22:35;;;;;;;26.38;18.00;;;9.60;99.90;;;;;;5066487;28;20048;-78
2023/04/17 07:25:01;;;;;;;28.30;17.90;;;9.70;99.90;;;;;;5067911;28;20469;-78
2023/04/17 07:27:27;;;;;;;25.52;18.02;;;9.70;99.90;;;;;;5067240;28;20112;-77
2023/04/17 07:29:55;;;;;;;25.35;18.25;;;9.90;99.90;;;;;;5050900;28;20072;-77
2023/04/17 07:32:23;;;;;;;25.02;17.48;;;9.90;99.90;;;;;;5065313;28;20159;-77
2023/04/17 07:34:49;;;;;;;27.13;17.10;;;10.00;99.90;;;;;;5067711;28;20080;-78
2023/04/17 07:37:15;;;;;;;24.30;17.65;;;10.10;99.90;;;;;;5067466;28;20547;-77
2023/04/17 07:39:41;;;;;;;25.50;17.27;;;10.20;99.90;;;;;;5050938;28;20052;-77
2023/04/17 07:42:07;;;;;;;25.70;17.33;;;10.30;99.90;;;;;;5067494;28;20692;-77
2023/04/17 07:44:38;;;;;;;23.38;16.83;;;10.40;99.90;;;;;;5070271;28;20048;-78
2023/04/17 07:47:03;;;;;;;22.75;16.52;;;10.40;99.90;;;;;;5071210;28;20184;-78
2023/04/17 07:49:29;;;;;;;23.52;16.50;;;10.50;99.90;;;;;;5060938;28;20071;-77
2023/04/17 07:51:55;;;;;;;22.35;15.45;;;10.50;99.90;;;;;;5052573;28;20033;-78
2023/04/17 07:54:21;;;;;;;21.10;14.85;;;10.50;99.90;;;;;;5066088;28;20413;-78
2023/04/17 07:56:48;;;;;;;21.48;15.18;;;10.50;99.90;;;;;;5036334;28;20037;-78
2023/04/17 07:59:17;;;;;;;24.98;15.35;;;10.60;99.90;;;;;;5051183;28;20106;-78
2023/04/17 08:01:43;;;;;;;22.70;14.98;;;10.70;99.90;;;;;;5050617;28;20111;-77
2023/04/17 08:04:09;;;;;;;22.95;16.55;;;10.70;99.90;;;;;;5042356;28;20044;-78
2023/04/17 08:06:34;;;;;;;23.85;15.40;;;10.80;99.90;;;;;;5070820;28;20066;-78
2023/04/17 08:09:01;;;;;;;20.85;14.63;;;10.80;99.90;;;;;;5072254;28;20610;-78
2023/04/17 08:11:27;;;;;;;21.85;14.57;;;10.80;99.90;;;;;;5070530;28;20044;-78
2023/04/17 08:13:55;;;;;;;22.23;15.65;;;10.80;99.90;;;;;;5071039;28;20044;-78
2023/04/17 08:16:21;;;;;;;21.75;15.18;;;10.80;99.90;;;;;;5070557;28;20127;-77
2023/04/17 08:18:47;;;;;;;20.83;15.10;;;10.90;99.90;;;;;;5047466;28;20122;-78
2023/04/17 08:21:13;;;;;;;19.63;14.73;;;11.00;99.90;;;;;;5050515;28;20407;-78
2023/04/17 08:23:40;;;;;;;20.20;14.98;;;11.00;99.90;;;;;;5034046;28;20045;-78
2023/04/17 08:26:06;;;;;;;21.23;14.80;;;11.10;99.90;;;;;;5050393;28;20137;-78
2023/04/17 08:28:32;;;;;;;21.08;14.55;;;11.20;99.90;;;;;;5067521;28;20091;-78
2023/04/17 08:30:57;;;;;;;21.83;14.70;;;11.30;99.90;;;;;;5070162;28;20105;-79
2023/04/17 08:33:23;;;;;;;20.50;13.93;;;11.30;99.90;;;;;;5057338;28;20055;-78
2023/04/17 08:35:50;;;;;;;20.65;13.73;;;11.30;99.90;;;;;;5071800;28;20135;-78
2023/04/17 08:38:16;;;;;;;20.42;13.35;;;11.40;99.90;;;;;;5071901;28;20120;-78
2023/04/17 08:40:45;;;;;;;22.42;14.45;;;11.40;99.90;;;;;;5070354;28;20128;-78
2023/04/17 08:43:16;;;;;;;20.00;14.32;;;11.50;99.90;;;;;;5053816;28;20045;-78
2023/04/17 08:45:55;;;;;;;21.73;14.27;;;11.60;99.90;;;;;;5033777;28;20049;-78
2023/04/17 08:48:24;;;;;;;19.58;14.13;;;11.80;99.90;;;;;;5068629;28;20040;-78
2023/04/17 08:50:51;;;;;;;20.85;15.13;;;11.90;99.90;;;;;;5071218;28;20040;-77
2023/04/17 08:53:17;;;;;;;20.58;14.85;;;12.00;99.90;;;;;;5068996;28;20044;-78
2023/04/17 08:55:44;;;;;;;20.30;15.07;;;12.20;99.90;;;;;;5069703;28;20044;-78
2023/04/17 08:58:11;;;;;;;21.77;15.50;;;12.20;99.90;;;;;;5070328;28;20048;-78
2023/04/17 09:00:42;;;;;;;19.92;15.02;;;12.30;99.90;;;;;;5071316;28;20044;-78
2023/04/17 09:03:11;;;;;;;21.17;14.52;;;12.40;99.90;;;;;;5069898;28;20044;-78
2023/04/17 09:05:40;;;;;;;19.23;12.50;;;12.60;99.90;;;;;;5068898;28;20043;-78
2023/04/17 09:08:16;;;;;;;17.92;13.13;;;12.60;99.90;;;;;;5053129;28;20066;-78
2023/04/17 09:10:42;;;;;;;20.33;12.57;;;12.70;99.90;;;;;;5069629;28;20102;-79
2023/04/17 09:13:09;;;;;;;19.00;12.23;;;12.80;99.90;;;;;;5053291;28;20040;-79
2023/04/17 09:15:35;;;;;;;18.70;12.57;;;12.90;99.90;;;;;;5069547;28;20058;-78
2023/04/17 09:18:02;;;;;;;17.90;12.32;;;13.00;99.90;;;;;;5070267;28;20116;-78
2023/04/17 09:20:28;;;;;;;18.10;12.20;;;13.20;99.90;;;;;;5070618;28;20048;-78
2023/04/17 09:23:04;;;;;;;20.67;12.02;;;13.30;99.90;;;;;;5069651;28;20424;-78
2023/04/17 09:25:30;;;;;;;18.17;12.07;;;13.30;99.90;;;;;;5069355;28;20102;-79
2023/04/17 09:28:12;;;;;;;18.13;11.57;;;13.50;99.90;;;;;;5069441;28;20052;-78
2023/04/17 09:30:42;;;;;;;17.50;11.82;;;13.50;99.90;;;;;;5069969;28;20051;-78
2023/04/17 09:33:09;;;;;;;16.92;11.80;;;13.50;99.90;;;;;;5060178;28;20449;-78
2023/04/17 09:35:39;;;;;;;17.13;11.43;;;13.40;99.90;;;;;;5069384;28;20375;-78
2023/04/17 09:38:04;;;;;;;15.45;11.48;;;13.30;99.90;;;;;;5070615;28;20036;-78
2023/04/17 09:40:39;;;;;;;17.70;11.85;;;13.40;99.90;;;;;;5068918;28;20067;-78
2023/04/17 09:43:07;;;;;;;18.58;10.95;;;13.30;99.90;;;;;;5069435;28;20494;-77
2023/04/17 09:45:40;;;;;;;16.20;10.90;;;13.30;99.90;;;;;;5068787;28;20053;-78
2023/04/17 09:48:16;;;;;;;19.58;11.07;;;13.40;99.90;;;;;;5069437;28;20038;-78
2023/04/17 09:50:42;;;;;;;16.65;11.25;;;13.70;99.90;;;;;;5055303;28;20150;-78
2023/04/17 09:53:08;;;;;;;16.70;11.18;;;13.80;99.90;;;;;;5032632;28;20485;-79
2023/04/17 09:55:36;;;;;;;16.23;11.30;;;13.90;99.90;;;;;;5059423;28;20119;-78
2023/04/17 09:58:04;;;;;;;19.45;11.60;;;13.80;99.90;;;;;;5068886;28;20121;-78
2023/04/17 10:00:30;;;;;;;16.83;11.05;;;13.70;99.90;;;;;;5052151;28;20044;-78
2023/04/17 10:02:59;;;;;;;18.60;12.82;;;13.70;99.90;;;;;;5052058;28;20040;-78
2023/04/17 10:05:30;;;;;;;19.45;12.10;;;13.60;99.90;;;;;;5056556;28;20049;-78
2023/04/17 10:07:56;;;;;;;19.27;11.10;;;13.60;99.90;;;;;;5040911;28;20123;-78
2023/04/17 10:10:29;;;;;;;18.15;11.70;;;13.60;99.90;;;;;;5068668;28;20128;-78
2023/04/17 10:12:57;;;;;;;17.08;11.57;;;13.50;99.90;;;;;;5068740;28;20485;-78
2023/04/17 10:15:24;;;;;;;17.63;11.95;;;13.40;99.90;;;;;;5069744;28;20064;-78
2023/04/17 10:17:51;;;;;;;19.77;12.13;;;13.50;99.90;;;;;;5067346;28;20486;-78
2023/04/17 10:20:18;;;;;;;17.92;11.82;;;13.60;99.90;;;;;;5069815;28;20445;-78
2023/04/17 10:22:52;;;;;;;16.90;11.27;;;13.70;99.90;;;;;;5068246;28;20048;-78
2023/04/17 10:25:21;;;;;;;20.45;12.55;;;13.80;99.90;;;;;;5069622;28;20110;-79
2023/04/17 10:27:58;;;;;;;20.98;12.73;;;13.80;99.90;;;;;;5068085;28;20554;-78
2023/04/17 10:30:52;;;;;;;18.40;12.25;;;13.80;99.90;;;;;;5051039;28;20040;-78
2023/04/17 10:33:20;;;;;;;19.52;12.18;;;13.90;99.90;;;;;;5060935;28;20049;-78
2023/04/17 10:35:46;;;;;;;19.33;12.52;;;14.00;99.90;;;;;;5068356;28;20044;-79
2023/04/17 10:38:12;;;;;;;18.15;11.82;;;14.10;99.90;;;;;;5068414;28;20350;-78
2023/04/17 10:40:38;;;;;;;19.35;12.88;;;14.10;99.90;;;;;;5033621;28;20373;-78
2023/04/17 10:43:19;;;;;;;20.23;12.52;;;14.20;99.90;;;;;;5068142;28;20056;-78
2023/04/17 10:46:08;;;;;;;19.98;13.40;;;14.30;99.90;;;;;;5068058;28;20127;-78
2023/04/17 10:48:34;;;;;;;20.20;13.43;;;14.40;99.90;;;;;;5041340;28;20144;-78
2023/04/17 10:51:19;;;;;;;19.50;12.82;;;14.60;99.90;;;;;;5048575;28;20131;-78
2023/04/17 10:53:45;;;;;;;18.98;12.55;;;14.60;99.90;;;;;;5068115;28;20127;-79
2023/04/17 10:56:23;;;;;;;20.23;13.75;;;14.60;99.90;;;;;;5067960;28;20371;-79
2023/04/17 10:59:01;;;;;;;18.15;12.73;;;14.50;99.90;;;;;;5067972;28;20048;-78
2023/04/17 11:01:30;;;;;;;19.92;13.07;;;14.50;99.90;;;;;;5068588;28;20048;-78
2023/04/17 11:03:59;;;;;;;19.52;13.95;;;14.50;99.90;;;;;;5050140;28;20464;-78
2023/04/17 11:06:30;;;;;;;18.80;13.15;;;14.60;99.90;;;;;;5034432;28;20098;-78
2023/04/17 11:08:58;;;;;;;20.60;12.23;;;14.80;99.90;;;;;;5051169;28;20056;-78
2023/04/17 11:11:24;;;;;;;19.15;12.93;;;14.90;99.90;;;;;;5051094;28;20488;-78
2023/04/17 11:13:50;;;;;;;18.85;12.63;;;14.90;99.90;;;;;;5067391;28;20040;-78
2023/04/17 11:16:18;;;;;;;19.52;13.13;;;14.90;99.90;;;;;;5050752;28;20512;-78
2023/04/17 11:18:44;;;;;;;19.08;13.05;;;14.90;99.90;;;;;;5071255;28;20045;-79
2023/04/17 11:21:14;;;;;;;17.73;12.73;;;14.70;99.90;;;;;;5055007;28;20127;-78
2023/04/17 11:23:41;;;;;;;18.13;12.68;;;14.70;99.90;;;;;;5070835;28;20052;-78
2023/04/17 11:26:07;;;;;;;18.80;12.70;;;14.50;99.90;;;;;;5071451;28;20052;-78
2023/04/17 11:28:36;;;;;;;18.40;13.18;;;14.50;99.90;;;;;;5055148;28;20045;-78
2023/04/17 11:31:02;;;;;;;21.25;13.45;;;14.70;99.90;;;;;;5071476;28;20052;-78
2023/04/17 11:33:35;;;;;;;19.75;12.75;;;14.60;99.90;;;;;;5065907;28;20040;-78
2023/04/17 11:36:01;;;;;;;19.95;12.68;;;14.70;99.90;;;;;;5072820;28;20040;-78
2023/04/17 11:38:27;;;;;;;20.40;12.57;;;14.80;99.90;;;;;;5070506;28;20044;-79
2023/04/17 11:41:00;;;;;;;19.27;13.13;;;14.80;99.90;;;;;;5072116;28;20061;-79
2023/04/17 11:43:28;;;;;;;18.75;13.13;;;14.90;99.90;;;;;;5055853;28;20413;-78
2023/04/17 11:45:56;;;;;;;18.98;13.25;;;14.90;99.90;;;;;;5040739;28;20084;-79
2023/04/17 11:48:27;;;;;;;19.95;13.60;;;15.00;99.90;;;;;;5071596;28;20532;-78
2023/04/17 11:50:55;;;;;;;20.77;13.68;;;15.00;99.90;;;;;;5054489;28;20055;-78
2023/04/17 11:53:21;;;;;;;24.10;13.63;;;15.10;99.90;;;;;;5071096;28;20144;-78
2023/04/17 11:55:48;;;;;;;20.52;13.48;;;15.20;99.90;;;;;;5037621;28;20128;-79
2023/04/17 11:58:14;;;;;;;18.60;13.27;;;15.10;99.90;;;;;;5037289;28;20036;-79
2023/04/17 12:00:41;;;;;;;21.05;13.43;;;15.20;99.90;;;;;;5070308;28;20124;-78
2023/04/17 12:03:30;;;;;;;22.15;13.75;;;15.00;99.90;;;;;;5054572;28;20113;-78
2023/04/17 12:06:00;;;;;;;18.98;13.60;;;15.00;99.90;;;;;;5046768;28;20052;-78
2023/04/17 12:08:26;;;;;;;21.70;13.55;;;15.20;99.90;;;;;;5054468;28;20063;-78
2023/04/17 12:10:52;;;;;;;22.45;13.93;;;15.10;99.90;;;;;;5070538;28;20063;-79
2023/04/17 12:13:18;;;;;;;20.08;14.07;;;15.10;99.90;;;;;;5070499;28;20060;-78
2023/04/17 12:15:44;;;;;;;22.83;14.32;;;15.20;99.90;;;;;;5070219;28;20047;-78
2023/04/17 12:18:10;;;;;;;19.30;13.10;;;15.50;99.90;;;;;;5071055;28;20040;-78
2023/04/17 12:20:36;;;;;;;22.17;13.80;;;15.60;99.90;;;;;;5070845;28;20079;-78
2023/04/17 12:23:04;;;;;;;18.80;13.65;;;15.50;99.90;;;;;;5072023;28;20101;-78
2023/04/17 12:25:33;;;;;;;22.02;13.85;;;15.60;99.90;;;;;;5053671;28;20040;-78
2023/04/17 12:27:59;;;;;;;19.15;12.35;;;15.60;99.90;;;;;;5071728;28;20097;-78
2023/04/17 12:30:26;;;;;;;19.05;12.93;;;15.60;99.90;;;;;;5068633;28;20441;-79
2023/04/17 12:32:52;;;;;;;19.58;12.43;;;15.70;99.90;;;;;;5068457;28;20055;-78